Desborough, United Kingdom
Current Conditions -  °F | °C
As of 1:50 PM on Saturday 20 Dec 2014 (Local Time) from EGXT Reporting Station
Broken Clouds Broken Clouds  
Wind Chill: 39°   Ceiling: 3100
Heat Index: 46°   Visibility: 6mi
Dew Point: 37°   Wind: 18mph
Humidity: 71%   Direction: 270°W
Pressure: 30.24"   Gusts: NA
Location:  52.44°N, 0.82°W
Report Text: EGXT 201350Z AUTO 27016KT 9999 BKN031/// BKN045/// 08/03 Q1024 RERA
Loading
Personal Weather Stations






























Interactive Weather Map New forecast layout! Learn more

10-Day Weather Forecast

Advertisements
Track Severe Weather on mobile